Time;durP1;ratioP1;P1;durP2;ratioP2;P2;SDS_P1;SDS_P2;PMS_P1;PMS_P2;Temp;Humidity;BMP_temperature;BMP_pressure;BME280_temperature;BME280_humidity;BME280_pressure;Samples;Min_cycle;Max_cycle;Signal;HPM_P1;HPM_P2
2022/07/01 00:02:43;;;;;;;2.97;1.92;;;;;;;22.91;100.00;97816.31;15275244;19;20015;-58
2022/07/01 00:07:49;;;;;;;3.78;1.80;;;;;;;22.89;100.00;97828.63;15273942;19;20053;-57
2022/07/01 00:12:56;;;;;;;3.70;2.05;;;;;;;22.86;100.00;97821.75;15277611;19;20010;-57
2022/07/01 00:18:02;;;;;;;3.70;1.80;;;;;;;22.87;100.00;97823.41;15272625;19;20034;-58
2022/07/01 00:23:07;;;;;;;2.85;1.65;;;;;;;22.86;100.00;97824.47;15261147;19;20021;-57
2022/07/01 00:28:15;;;;;;;3.50;1.88;;;;;;;22.84;100.00;97823.09;15273362;19;20002;-63
2022/07/01 00:33:21;;;;;;;4.00;1.90;;;;;;;22.81;100.00;97805.22;15277490;19;20006;-54
2022/07/01 00:38:26;;;;;;;4.05;1.95;;;;;;;22.81;100.00;97801.63;15272839;19;20013;-55
2022/07/01 00:43:38;;;;;;;6.88;1.80;;;;;;;22.81;100.00;97796.97;15283077;19;20467;-57
2022/07/01 00:49:04;;;;;;;3.95;1.80;;;;;;;22.73;100.00;97803.75;15286427;19;20014;-56
2022/07/01 00:54:09;;;;;;;3.03;1.70;;;;;;;22.66;100.00;97796.78;15281318;19;20011;-59
2022/07/01 00:59:17;;;;;;;4.07;2.00;;;;;;;22.61;100.00;97806.59;15283963;19;20379;-58
2022/07/01 01:04:23;;;;;;;2.83;1.80;;;;;;;22.63;100.00;97826.41;15285279;19;20014;-59
2022/07/01 01:09:28;;;;;;;3.25;1.90;;;;;;;22.67;100.00;97821.22;15290403;19;20034;-58
2022/07/01 01:14:45;;;;;;;2.67;1.70;;;;;;;22.68;100.00;97830.31;15287887;19;20021;-57
2022/07/01 01:19:53;;;;;;;3.75;2.00;;;;;;;22.55;100.00;97826.84;15288492;19;20006;-58
2022/07/01 01:25:01;;;;;;;4.75;1.80;;;;;;;22.45;100.00;97830.28;15280150;19;20014;-57
2022/07/01 01:30:06;;;;;;;3.63;1.90;;;;;;;22.24;100.00;97855.72;15282731;19;20107;-54
2022/07/01 01:35:13;;;;;;;4.05;1.95;;;;;;;22.26;100.00;97870.03;15287943;19;20014;-55
2022/07/01 01:40:20;;;;;;;2.00;1.60;;;;;;;22.18;100.00;97868.53;15289267;19;20034;-53
2022/07/01 01:45:25;;;;;;;3.55;2.00;;;;;;;21.94;100.00;97856.91;15283764;19;20039;-56
2022/07/01 01:50:31;;;;;;;5.35;2.05;;;;;;;21.82;100.00;97855.06;15291383;19;20282;-55
2022/07/01 01:55:38;;;;;;;4.72;1.67;;;;;;;21.67;100.00;97857.56;15280272;19;20002;-57
2022/07/01 02:00:44;;;;;;;4.10;1.70;;;;;;;21.53;100.00;97871.56;15278334;19;20379;-56
2022/07/01 02:05:50;;;;;;;3.83;1.60;;;;;;;21.46;100.00;97895.50;15279455;19;20019;-56
2022/07/01 02:10:58;;;;;;;2.58;1.40;;;;;;;21.51;100.00;97909.31;15283524;19;20006;-56
2022/07/01 02:16:07;;;;;;;2.75;1.40;;;;;;;21.50;100.00;97921.38;15282968;19;20357;-57
2022/07/01 02:21:12;;;;;;;3.08;1.45;;;;;;;21.38;100.00;97926.06;15283600;19;20014;-56
2022/07/01 02:26:21;;;;;;;3.65;1.40;;;;;;;21.26;100.00;97937.06;15279910;19;20011;-55
2022/07/01 02:31:26;;;;;;;2.65;1.40;;;;;;;21.24;100.00;97945.50;15269742;19;20340;-57
2022/07/01 02:36:32;;;;;;;2.83;1.50;;;;;;;21.19;100.00;97934.47;15280467;19;20011;-58
2022/07/01 02:46:57;;;;;;;6.10;1.50;;;;;;;21.04;100.00;97940.47;15278777;19;20025;-57
2022/07/01 02:52:03;;;;;;;6.28;1.50;;;;;;;20.81;100.00;97948.72;15280863;19;20053;-58
2022/07/01 02:57:10;;;;;;;4.38;1.42;;;;;;;20.47;100.00;97950.09;15281259;19;20371;-59
2022/07/01 03:02:17;;;;;;;1.95;1.40;;;;;;;20.15;100.00;97964.09;15274980;19;20357;-61
2022/07/01 03:07:23;;;;;;;2.47;1.42;;;;;;;19.93;100.00;97972.03;15271579;19;20026;-55
2022/07/01 03:12:34;;;;;;;4.13;1.50;;;;;;;19.80;100.00;97988.59;15281053;19;20020;-58
2022/07/01 03:17:41;;;;;;;2.95;1.40;;;;;;;19.65;100.00;98014.41;15277686;19;20096;-58
2022/07/01 03:22:49;;;;;;;2.28;1.60;;;;;;;19.52;100.00;98015.41;15276286;19;20762;-60
2022/07/01 03:27:57;;;;;;;3.30;1.77;;;;;;;19.41;100.00;98016.19;15274533;19;20345;-58
2022/07/01 03:33:02;;;;;;;3.03;1.70;;;;;;;19.35;100.00;98031.59;15275454;19;20031;-57
2022/07/01 03:38:09;;;;;;;3.45;1.90;;;;;;;19.28;100.00;98030.03;15268003;19;20362;-59
2022/07/01 03:43:20;;;;;;;5.63;1.90;;;;;;;19.22;100.00;98048.16;15278778;19;20014;-53
2022/07/01 03:48:25;;;;;;;3.65;1.80;;;;;;;19.16;100.00;98040.84;15273529;19;20035;-57
2022/07/01 03:58:53;;;;;;;7.90;2.17;;;;;;;18.92;100.00;98073.38;15274627;19;20007;-53
2022/07/01 04:03:59;;;;;;;8.05;2.17;;;;;;;18.88;100.00;98075.72;15275949;19;20483;-58
2022/07/01 04:09:06;;;;;;;2.85;2.13;;;;;;;18.82;100.00;98101.19;15264351;19;20460;-58
2022/07/01 04:14:15;;;;;;;2.50;2.20;;;;;;;18.78;100.00;98132.72;15276598;19;20018;-58
2022/07/01 04:19:20;;;;;;;2.72;2.05;;;;;;;18.72;100.00;98137.16;15286834;19;20100;-57
2022/07/01 04:24:26;;;;;;;5.63;2.22;;;;;;;18.59;100.00;98153.63;15289109;19;20015;-55
2022/07/01 04:29:34;;;;;;;4.03;2.25;;;;;;;18.48;100.00;98163.34;15293574;19;20007;-54
2022/07/01 04:34:39;;;;;;;2.65;2.40;;;;;;;18.41;100.00;98168.81;15282931;19;20010;-57
2022/07/01 04:39:45;;;;;;;2.50;2.30;;;;;;;18.38;100.00;98163.81;15276309;19;20018;-55
2022/07/01 04:44:53;;;;;;;4.63;2.63;;;;;;;18.22;100.00;98158.88;15280112;19;20015;-58
2022/07/01 04:49:58;;;;;;;4.47;2.35;;;;;;;18.20;100.00;98163.69;15293295;19;20034;-56
2022/07/01 04:55:04;;;;;;;4.00;2.50;;;;;;;18.08;100.00;98174.47;15289566;19;20374;-58
2022/07/01 05:00:14;;;;;;;4.40;2.88;;;;;;;18.05;100.00;98151.19;15292906;19;20018;-58
2022/07/01 05:05:20;;;;;;;5.00;2.55;;;;;;;18.02;100.00;98154.34;15282602;19;20323;-60
2022/07/01 05:10:28;;;;;;;3.25;2.35;;;;;;;17.98;100.00;98132.16;15286500;19;20381;-57
2022/07/01 05:15:36;;;;;;;3.33;2.40;;;;;;;17.97;100.00;98156.88;15282015;19;20363;-57
2022/07/01 05:25:58;;;;;;;2.85;2.40;;;;;;;17.96;100.00;98175.09;15283336;19;20058;-56
2022/07/01 05:31:06;;;;;;;3.22;1.90;;;;;;;17.96;100.00;98171.53;15290943;19;20014;-58
2022/07/01 05:36:12;;;;;;;2.60;2.40;;;;;;;17.90;100.00;98177.84;15286392;19;20835;-57
2022/07/01 05:41:17;;;;;;;2.80;2.10;;;;;;;17.91;100.00;98198.59;15287444;19;20014;-60
2022/07/01 05:46:24;;;;;;;3.72;2.50;;;;;;;17.82;100.00;98209.72;15277912;19;20007;-54
2022/07/01 05:51:29;;;;;;;2.95;2.65;;;;;;;17.76;100.00;98213.31;15288446;19;20030;-55
2022/07/01 05:56:35;;;;;;;3.00;2.70;;;;;;;17.64;100.00;98223.19;15283437;19;20014;-52
2022/07/01 06:01:43;;;;;;;4.57;2.88;;;;;;;17.54;100.00;98223.59;15286529;19;20039;-56
2022/07/01 06:06:49;;;;;;;3.60;2.90;;;;;;;17.41;100.00;98236.19;15280576;19;20082;-54
2022/07/01 06:11:55;;;;;;;3.55;2.80;;;;;;;17.21;100.00;98255.25;15284195;19;20042;-56
2022/07/01 06:17:03;;;;;;;4.28;2.65;;;;;;;17.19;100.00;98273.69;15271500;19;20014;-51
2022/07/01 06:22:08;;;;;;;4.85;2.80;;;;;;;17.12;100.00;98274.72;15283499;19;20038;-52
2022/07/01 06:27:13;;;;;;;2.90;2.50;;;;;;;17.04;100.00;98294.78;15280348;19;20015;-53
2022/07/01 06:32:21;;;;;;;2.60;2.40;;;;;;;17.03;100.00;98304.84;15283482;19;20042;-53
2022/07/01 06:37:26;;;;;;;3.92;2.60;;;;;;;16.97;100.00;98323.88;15278143;19;20039;-50
2022/07/01 06:42:33;;;;;;;2.70;2.42;;;;;;;16.89;100.00;98341.19;15279908;19;20034;-53
2022/07/01 06:47:40;;;;;;;3.33;2.50;;;;;;;16.89;100.00;98327.59;15274817;19;20038;-56
2022/07/01 06:52:45;;;;;;;3.45;2.60;;;;;;;16.80;100.00;98332.38;15277520;19;20021;-57
2022/07/01 06:57:50;;;;;;;4.28;2.63;;;;;;;16.76;100.00;98322.94;15277418;19;20019;-57
2022/07/01 07:03:00;;;;;;;2.40;2.20;;;;;;;16.83;100.00;98331.97;15281990;19;20022;-56
2022/07/01 07:08:06;;;;;;;3.30;2.20;;;;;;;16.84;100.00;98339.09;15275427;19;20018;-56
2022/07/01 07:13:11;;;;;;;2.30;2.10;;;;;;;16.88;100.00;98340.34;15280719;19;20011;-54
2022/07/01 07:18:19;;;;;;;3.20;2.10;;;;;;;16.86;100.00;98326.13;15274745;19;20030;-55
2022/07/01 07:23:25;;;;;;;3.40;2.05;;;;;;;16.80;100.00;98332.38;15270239;19;20082;-57
2022/07/01 07:28:30;;;;;;;4.22;2.10;;;;;;;16.70;100.00;98357.22;15277840;19;20006;-55
2022/07/01 07:33:37;;;;;;;2.38;2.17;;;;;;;16.45;100.00;98365.91;15275370;19;20014;-57
2022/07/01 07:38:43;;;;;;;3.30;2.38;;;;;;;16.42;100.00;98368.19;15276530;19;20011;-53
2022/07/01 07:43:48;;;;;;;3.42;2.70;;;;;;;15.97;100.00;98353.06;15278527;19;20051;-52
2022/07/01 07:48:56;;;;;;;5.80;3.60;;;;;;;15.81;100.00;98389.47;15275692;19;20014;-51
2022/07/01 07:54:02;;;;;;;4.07;3.42;;;;;;;15.61;100.00;98394.72;15279599;19;20031;-51
2022/07/01 07:59:07;;;;;;;5.63;3.47;;;;;;;15.35;100.00;98401.56;15288721;19;20021;-56
2022/07/01 08:04:15;;;;;;;5.93;4.00;;;;;;;15.02;100.00;98442.72;15287728;19;20018;-57
2022/07/01 08:09:21;;;;;;;6.70;4.50;;;;;;;14.85;100.00;98481.97;15278120;19;20022;-58
2022/07/01 08:14:26;;;;;;;8.32;5.05;;;;;;;14.71;100.00;98472.78;15292773;19;20047;-60
2022/07/01 08:19:33;;;;;;;5.45;4.05;;;;;;;14.49;100.00;98468.06;15292584;19;21162;-59
2022/07/01 08:24:38;;;;;;;5.47;4.95;;;;;;;14.42;100.00;98477.97;15287520;19;20010;-58
2022/07/01 08:29:44;;;;;;;7.25;6.32;;;;;;;14.32;100.00;98467.41;15284866;19;20077;-60
2022/07/01 08:34:53;;;;;;;5.43;4.68;;;;;;;14.25;100.00;98503.53;15290526;19;20025;-59
2022/07/01 08:39:59;;;;;;;7.55;6.43;;;;;;;14.17;100.00;98513.41;15290039;19;20583;-61
2022/07/01 08:45:04;;;;;;;7.88;6.93;;;;;;;14.17;100.00;98526.13;15287609;19;20035;-58
2022/07/01 08:50:14;;;;;;;7.88;5.80;;;;;;;14.14;100.00;98540.88;15289677;19;20400;-54
2022/07/01 08:55:26;;;;;;;7.63;5.90;;;;;;;14.21;100.00;98551.00;15282624;19;20380;-54
2022/07/01 09:00:33;;;;;;;8.07;6.72;;;;;;;14.27;100.00;98550.28;15281202;19;20028;-56
2022/07/01 09:05:51;;;;;;;4.13;3.75;;;;;;;14.29;100.00;98549.06;15284752;19;20471;-57
2022/07/01 09:10:57;;;;;;;3.80;3.45;;;;;;;14.33;100.00;98558.53;15288285;19;20085;-58
2022/07/01 09:16:01;;;;;;;4.57;3.90;;;;;;;14.39;100.00;98559.66;15284221;19;20038;-54
2022/07/01 09:21:16;;;;;;;3.50;3.20;;;;;;;14.41;100.00;98578.44;15285404;19;20024;-59
2022/07/01 09:26:22;;;;;;;3.85;3.53;;;;;;;14.41;100.00;98565.72;15284477;19;20364;-59
2022/07/01 09:31:34;;;;;;;3.75;3.35;;;;;;;14.47;100.00;98569.56;15277976;19;20011;-56
2022/07/01 09:36:43;;;;;;;3.60;3.30;;;;;;;14.56;100.00;98545.94;15284759;19;20506;-58
2022/07/01 09:41:47;;;;;;;4.13;3.72;;;;;;;14.66;100.00;98545.69;15288746;19;20030;-55
2022/07/01 09:46:57;;;;;;;3.88;3.47;;;;;;;14.73;100.00;98536.66;15281828;19;20605;-54
2022/07/01 09:52:06;;;;;;;4.05;3.38;;;;;;;14.87;100.00;98536.88;15286274;19;20495;-55
2022/07/01 09:57:11;;;;;;;4.32;2.55;;;;;;;15.03;100.00;98550.22;15281226;19;20018;-57
2022/07/01 10:02:20;;;;;;;3.88;2.83;;;;;;;15.22;100.00;98551.53;15273681;19;20707;-53
2022/07/01 10:07:38;;;;;;;2.08;1.98;;;;;;;15.29;100.00;98554.34;15281616;19;20019;-53
2022/07/01 10:12:46;;;;;;;1.70;1.60;;;;;;;15.30;100.00;98544.31;15284163;19;20689;-54
2022/07/01 10:17:53;;;;;;;1.88;1.77;;;;;;;15.17;100.00;98555.84;15280016;19;20042;-59
2022/07/01 10:23:09;;;;;;;1.70;1.60;;;;;;;15.18;100.00;98546.69;15283032;19;20368;-59
2022/07/01 10:28:15;;;;;;;1.70;1.60;;;;;;;15.07;100.00;98537.97;15279034;19;20027;-56
2022/07/01 10:33:40;;;;;;;2.40;2.20;;;;;;;15.14;100.00;98551.66;15277931;19;20043;-58
2022/07/01 10:39:14;;;;;;;2.20;2.00;;;;;;;15.16;100.00;98554.16;15273369;19;20039;-58
2022/07/01 10:44:19;;;;;;;2.42;2.20;;;;;;;15.19;100.00;98564.66;15281805;19;20038;-54
2022/07/01 10:49:54;;;;;;;2.33;2.13;;;;;;;15.21;100.00;98578.88;15281935;19;20039;-53
2022/07/01 10:55:05;;;;;;;2.08;1.88;;;;;;;15.32;100.00;98582.97;15278986;19;20603;-58
2022/07/01 11:00:35;;;;;;;2.70;1.63;;;;;;;15.29;100.00;98583.38;15282296;19;20014;-57
2022/07/01 11:05:42;;;;;;;1.75;1.60;;;;;;;15.31;100.00;98565.88;15274349;19;20025;-56
2022/07/01 11:10:54;;;;;;;2.22;1.90;;;;;;;15.37;100.00;98584.09;15273849;19;20596;-53
2022/07/01 11:15:59;;;;;;;2.88;2.17;;;;;;;15.44;100.00;98589.63;15278117;19;20021;-53
2022/07/01 11:21:09;;;;;;;2.35;2.15;;;;;;;15.60;100.00;98580.41;15278292;19;20485;-56
2022/07/01 11:26:27;;;;;;;2.78;2.58;;;;;;;15.63;100.00;98585.47;15275630;19;20026;-56
2022/07/01 11:31:35;;;;;;;2.60;2.40;;;;;;;15.60;100.00;98587.72;15279446;19;20014;-56
2022/07/01 11:42:08;;;;;;;3.25;2.95;;;;;;;15.52;100.00;98586.78;15279595;19;20021;-58
2022/07/01 11:47:24;;;;;;;3.92;3.20;;;;;;;15.49;100.00;98605.34;15279751;19;20487;-58
2022/07/01 11:52:31;;;;;;;3.20;2.88;;;;;;;15.31;100.00;98601.16;15284072;19;20003;-57
2022/07/01 11:57:39;;;;;;;2.65;2.45;;;;;;;15.30;100.00;98579.59;15279044;19;20018;-57
2022/07/01 12:02:44;;;;;;;2.50;2.30;;;;;;;15.24;100.00;98582.06;15281807;19;20007;-58
2022/07/01 12:07:49;;;;;;;3.95;2.67;;;;;;;15.38;100.00;98580.34;15276448;19;20019;-57
2022/07/01 12:12:57;;;;;;;2.00;1.90;;;;;;;15.37;100.00;98581.38;15269032;19;20022;-60
2022/07/01 12:18:09;;;;;;;4.47;2.30;;;;;;;15.25;100.00;98585.59;15272914;19;20022;-55
2022/07/01 12:23:14;;;;;;;;;;;;;;;15.23;100.00;98604.78;15276744;19;20477;-57
2022/07/01 12:28:33;;;;;;;2.40;2.20;;;;;;;15.30;100.00;98615.75;15272351;19;19935;-58
2022/07/01 12:33:40;;;;;;;2.30;2.10;;;;;;;15.38;100.00;98607.50;15274760;19;20427;-57
2022/07/01 12:38:48;;;;;;;3.72;2.05;;;;;;;15.51;100.00;98609.56;15280985;19;20032;-58
2022/07/01 12:43:56;;;;;;;4.07;1.70;;;;;;;15.52;100.00;98602.25;15277549;19;20014;-55
2022/07/01 12:49:02;;;;;;;3.25;1.63;;;;;;;15.43;100.00;98597.97;15280643;19;20025;-58
2022/07/01 12:54:07;;;;;;;2.08;1.60;;;;;;;15.39;100.00;98613.78;15283375;19;20042;-58
2022/07/01 12:59:15;;;;;;;2.28;1.92;;;;;;;15.24;100.00;98624.63;15281181;19;20025;-60
2022/07/01 13:04:39;;;;;;;1.90;1.70;;;;;;;15.07;100.00;98635.66;15284554;19;20022;-56
2022/07/01 13:09:44;;;;;;;3.03;1.70;;;;;;;15.08;100.00;98637.34;15284321;19;20018;-58
2022/07/01 13:14:53;;;;;;;4.85;1.95;;;;;;;15.07;100.00;98626.66;15278770;19;20006;-55
2022/07/01 13:19:58;;;;;;;2.67;2.03;;;;;;;15.01;100.00;98636.38;15279737;19;20015;-59
2022/07/01 13:25:04;;;;;;;1.90;1.80;;;;;;;14.98;100.00;98655.78;15282946;19;20074;-58
2022/07/01 13:30:14;;;;;;;2.45;1.98;;;;;;;14.92;100.00;98670.06;15284160;19;20019;-60
2022/07/01 13:35:19;;;;;;;2.00;1.80;;;;;;;14.92;100.00;98667.34;15283874;19;20021;-58
2022/07/01 13:40:25;;;;;;;4.03;2.00;;;;;;;14.90;100.00;98667.53;15282138;19;20661;-58
2022/07/01 13:45:33;;;;;;;1.83;1.50;;;;;;;14.89;100.00;98656.84;15277861;19;20038;-56
2022/07/01 13:50:41;;;;;;;1.70;1.60;;;;;;;14.97;100.00;98669.50;15276562;19;20077;-57
2022/07/01 13:55:46;;;;;;;1.60;1.50;;;;;;;15.00;100.00;98658.28;15282505;19;20022;-55
2022/07/01 14:00:54;;;;;;;2.47;1.40;;;;;;;15.06;100.00;98682.81;15284585;19;20014;-58
2022/07/01 14:05:59;;;;;;;1.95;1.35;;;;;;;15.06;100.00;98685.53;15282118;19;20416;-58
2022/07/01 14:11:04;;;;;;;1.90;1.50;;;;;;;15.09;100.00;98677.03;15284644;19;20389;-58
2022/07/01 14:16:12;;;;;;;1.65;1.35;;;;;;;15.08;100.00;98688.91;15278625;19;20022;-59
2022/07/01 14:21:17;;;;;;;2.97;1.40;;;;;;;15.10;100.00;98686.88;15271129;19;20424;-58
2022/07/01 14:26:23;;;;;;;1.95;1.42;;;;;;;15.07;100.00;98687.22;15280361;19;20038;-58
2022/07/01 14:31:33;;;;;;;1.98;1.42;;;;;;;15.09;100.00;98696.03;15282997;19;20038;-58
2022/07/01 14:36:41;;;;;;;1.70;1.50;;;;;;;15.08;100.00;98705.19;15280717;19;20013;-56
2022/07/01 14:41:52;;;;;;;3.20;1.70;;;;;;;15.07;100.00;98710.78;15281360;19;20287;-57
2022/07/01 14:47:04;;;;;;;2.47;1.52;;;;;;;15.11;100.00;98706.69;15279160;19;20039;-58
2022/07/01 14:52:10;;;;;;;2.00;1.50;;;;;;;15.10;100.00;98719.44;15271663;19;20373;-58
2022/07/01 14:57:15;;;;;;;4.40;1.60;;;;;;;15.15;100.00;98732.44;15278307;19;20538;-58
2022/07/01 15:02:24;;;;;;;1.95;1.75;;;;;;;15.20;100.00;98772.59;15276433;19;20089;-60
2022/07/01 15:07:30;;;;;;;2.05;1.83;;;;;;;15.16;100.00;98763.13;15276433;19;20025;-60
2022/07/01 15:12:35;;;;;;;2.58;2.00;;;;;;;15.14;100.00;98759.75;15282836;19;20014;-58
2022/07/01 15:17:46;;;;;;;2.83;2.30;;;;;;;15.10;100.00;98749.28;15275107;19;20014;-60
2022/07/01 15:22:51;;;;;;;2.30;2.10;;;;;;;15.04;100.00;98741.84;15271616;19;20021;-57
2022/07/01 15:27:56;;;;;;;2.92;2.25;;;;;;;15.11;100.00;98752.81;15265184;19;20010;-57
2022/07/01 15:33:06;;;;;;;2.75;2.17;;;;;;;14.96;100.00;98771.78;15279713;19;20017;-58
2022/07/01 15:38:12;;;;;;;4.22;2.50;;;;;;;14.97;100.00;98784.31;15274551;19;20030;-58
2022/07/01 15:43:17;;;;;;;3.15;2.53;;;;;;;15.01;100.00;98788.34;15279024;19;20503;-56
2022/07/01 15:48:26;;;;;;;2.70;2.50;;;;;;;15.18;100.00;98790.94;15272919;19;20034;-57
2022/07/01 15:53:33;;;;;;;2.33;2.13;;;;;;;15.23;100.00;98764.06;15278344;19;20017;-60
2022/07/01 15:58:38;;;;;;;3.30;2.42;;;;;;;15.23;100.00;98766.78;15259748;19;20006;-57
2022/07/01 16:03:50;;;;;;;2.60;2.20;;;;;;;15.25;100.00;98737.59;15278504;19;20011;-60
2022/07/01 16:09:02;;;;;;;2.45;1.92;;;;;;;15.25;100.00;98737.59;15275026;19;20039;-59
2022/07/01 16:14:10;;;;;;;2.33;2.13;;;;;;;15.26;100.00;98736.56;15289078;19;20038;-56
2022/07/01 16:19:20;;;;;;;2.55;2.20;;;;;;;15.33;100.00;98714.97;15287157;19;20033;-59
2022/07/01 16:24:25;;;;;;;3.05;2.35;;;;;;;15.45;100.00;98747.94;15289260;19;20341;-56
2022/07/01 16:29:32;;;;;;;3.80;2.15;;;;;;;15.64;100.00;98735.72;15274757;19;20475;-57
2022/07/01 16:34:41;;;;;;;3.25;1.50;;;;;;;15.77;100.00;98729.59;15290424;19;20078;-59
2022/07/01 16:39:55;;;;;;;2.42;1.50;;;;;;;15.66;100.00;98758.94;15291412;19;20010;-58
2022/07/01 16:45:02;;;;;;;1.40;1.30;;;;;;;15.68;100.00;98770.44;15289452;19;20046;-60
2022/07/01 16:50:12;;;;;;;1.55;1.20;;;;;;;15.95;100.00;98772.75;15286696;19;20016;-59
2022/07/01 16:55:19;;;;;;;2.08;1.40;;;;;;;16.51;100.00;98715.09;15288278;19;20038;-59
2022/07/01 17:00:25;;;;;;;1.55;1.20;;;;;;;17.09;100.00;98727.81;15285926;19;20355;-61
2022/07/01 17:05:34;;;;;;;1.88;1.10;;;;;;;17.39;100.00;98730.34;15282198;19;20015;-59
2022/07/01 17:10:41;;;;;;;2.03;1.60;;;;;;;17.24;100.00;98752.25;15289245;19;20018;-55
2022/07/01 17:15:46;;;;;;;3.75;1.30;;;;;;;17.18;100.00;98770.22;15287395;19;20014;-54
2022/07/01 17:20:55;;;;;;;1.98;1.35;;;;;;;17.10;100.00;98756.75;15287736;19;20011;-56
2022/07/01 17:26:02;;;;;;;1.92;1.17;;;;;;;17.35;100.00;98756.28;15286286;19;20050;-57
2022/07/01 17:31:20;;;;;;;1.27;0.88;;;;;;;17.63;100.00;98750.03;15290736;19;20014;-57
2022/07/01 17:36:29;;;;;;;2.05;1.00;;;;;;;17.99;100.00;98760.75;15278830;19;20579;-57
2022/07/01 17:41:39;;;;;;;2.55;1.08;;;;;;;18.23;100.00;98755.00;15286474;19;20042;-58
2022/07/01 17:46:51;;;;;;;1.05;1.00;;;;;;;18.45;100.00;98753.00;15282141;19;20039;-60
2022/07/01 17:51:59;;;;;;;1.10;1.00;;;;;;;18.46;100.00;98766.44;15283876;19;20473;-58
2022/07/01 17:57:16;;;;;;;1.70;1.30;;;;;;;18.65;100.00;98774.88;15284390;19;20362;-59
2022/07/01 18:02:23;;;;;;;2.28;0.90;;;;;;;18.89;100.00;98780.81;15283376;19;20027;-57
2022/07/01 18:07:31;;;;;;;4.10;1.15;;;;;;;18.84;100.00;98773.25;15269135;19;20383;-57
2022/07/01 18:12:43;;;;;;;1.17;0.75;;;;;;;18.90;100.00;98763.41;15285265;19;20114;-59
2022/07/01 18:17:59;;;;;;;1.08;0.98;;;;;;;18.97;100.00;98769.75;15274747;19;20018;-57
2022/07/01 18:23:11;;;;;;;0.98;0.80;;;;;;;18.91;100.00;98781.47;15286197;19;20022;-59
2022/07/01 18:28:18;;;;;;;1.48;0.90;;;;;;;18.99;100.00;98784.06;15280814;19;20011;-57
2022/07/01 18:33:25;;;;;;;2.17;0.93;;;;;;;18.96;100.00;98770.81;15286641;19;20507;-59
2022/07/01 18:38:33;;;;;;;3.42;0.90;;;;;;;18.97;100.00;98772.50;15269587;19;20410;-59
2022/07/01 18:43:38;;;;;;;2.03;0.93;;;;;;;18.62;100.00;98772.59;15283306;19;20507;-58
2022/07/01 18:48:43;;;;;;;1.92;1.00;;;;;;;18.46;100.00;98790.16;15279215;19;20034;-58
2022/07/01 18:53:51;;;;;;;1.00;0.80;;;;;;;18.33;100.00;98797.22;15282123;19;20014;-57
2022/07/01 18:59:00;;;;;;;1.75;0.90;;;;;;;18.27;100.00;98806.22;15277401;19;20018;-59
2022/07/01 19:04:05;;;;;;;1.77;1.00;;;;;;;18.08;100.00;98813.22;15283241;19;20018;-60
2022/07/01 19:09:13;;;;;;;1.70;0.90;;;;;;;17.89;100.00;98808.47;15274284;19;20018;-57
2022/07/01 19:14:18;;;;;;;1.40;0.88;;;;;;;17.68;100.00;98818.41;15275287;19;20019;-59
2022/07/01 19:19:27;;;;;;;1.50;0.90;;;;;;;17.49;100.00;98826.19;15277221;19;20010;-57
2022/07/01 19:24:41;;;;;;;3.17;0.85;;;;;;;17.30;100.00;98837.75;15280909;19;20025;-58
2022/07/01 19:29:51;;;;;;;1.83;1.00;;;;;;;17.01;100.00;98855.88;15279097;19;20031;-57
2022/07/01 19:34:57;;;;;;;1.38;0.90;;;;;;;16.71;100.00;98861.38;15281705;19;20015;-57
2022/07/01 19:40:05;;;;;;;0.95;0.93;;;;;;;16.57;100.00;98858.47;15281263;19;20050;-58
2022/07/01 19:45:11;;;;;;;1.60;1.00;;;;;;;16.33;100.00;98871.34;15243155;19;20043;-57
2022/07/01 19:50:17;;;;;;;1.65;0.90;;;;;;;16.05;100.00;98889.34;15275363;19;20009;-58
2022/07/01 19:55:25;;;;;;;1.23;1.02;;;;;;;15.94;100.00;98899.59;15275860;19;20042;-57
2022/07/01 20:00:30;;;;;;;1.58;1.00;;;;;;;15.81;100.00;98910.25;15280502;19;20550;-58
2022/07/01 20:05:35;;;;;;;1.60;1.10;;;;;;;15.67;100.00;98915.44;15282372;19;20043;-58
2022/07/01 20:10:43;;;;;;;1.50;1.00;;;;;;;15.59;100.00;98926.34;15277214;19;20335;-58
2022/07/01 20:15:48;;;;;;;1.70;0.90;;;;;;;15.49;100.00;98931.19;15263955;19;20026;-59
2022/07/01 20:20:53;;;;;;;2.47;1.00;;;;;;;15.42;100.00;98933.75;15276490;19;20017;-60
2022/07/01 20:26:01;;;;;;;1.27;1.13;;;;;;;15.34;100.00;98948.25;15275491;19;20014;-59
2022/07/01 20:31:06;;;;;;;0.95;0.93;;;;;;;15.31;100.00;98943.19;15272702;19;20590;-60
2022/07/01 20:36:11;;;;;;;1.40;0.90;;;;;;;15.28;100.00;98956.28;15273865;19;20348;-60
2022/07/01 20:41:19;;;;;;;2.22;1.00;;;;;;;15.24;100.00;98958.47;15275187;19;20014;-58
2022/07/01 20:46:24;;;;;;;1.70;1.17;;;;;;;15.16;100.00;98958.53;15261394;19;20015;-57
2022/07/01 20:51:30;;;;;;;1.90;1.23;;;;;;;15.10;100.00;98957.38;15270727;19;20025;-57
2022/07/01 20:56:38;;;;;;;2.83;1.05;;;;;;;15.02;100.00;98960.13;15271962;19;20044;-57
2022/07/01 21:01:43;;;;;;;0.98;0.93;;;;;;;14.96;100.00;98964.41;15279592;19;20379;-58
2022/07/01 21:06:48;;;;;;;4.45;1.10;;;;;;;14.86;100.00;98977.34;15281625;19;20022;-58
2022/07/01 21:11:56;;;;;;;1.73;1.00;;;;;;;14.72;100.00;98987.88;15287471;19;20018;-55
2022/07/01 21:17:03;;;;;;;1.83;1.00;;;;;;;14.61;100.00;98999.06;15284526;19;20051;-56
2022/07/01 21:22:09;;;;;;;1.23;0.82;;;;;;;14.55;100.00;99007.88;15274900;19;20062;-58
2022/07/01 21:27:16;;;;;;;2.67;1.00;;;;;;;14.46;100.00;99005.19;15282636;19;20134;-58
2022/07/01 21:32:22;;;;;;;1.52;0.90;;;;;;;14.40;100.00;99000.47;15283808;19;20006;-56
2022/07/01 21:37:27;;;;;;;1.58;1.00;;;;;;;14.36;100.00;99018.09;15280930;19;20023;-59
2022/07/01 21:42:34;;;;;;;1.98;1.10;;;;;;;14.29;100.00;99025.19;15288397;19;20010;-56
2022/07/01 21:47:40;;;;;;;2.55;1.00;;;;;;;14.16;100.00;99026.59;15282968;19;20034;-58
2022/07/01 21:52:48;;;;;;;2.00;0.95;;;;;;;14.14;100.00;99041.28;15277074;19;20031;-57
2022/07/01 21:57:59;;;;;;;1.65;0.80;;;;;;;14.11;100.00;99039.78;15280908;19;20058;-57
2022/07/01 22:03:04;;;;;;;0.80;0.80;;;;;;;14.13;100.00;99032.34;15284979;19;20022;-56
2022/07/01 22:08:09;;;;;;;2.47;0.82;;;;;;;14.11;100.00;99033.53;15278732;19;20022;-54
2022/07/01 22:13:18;;;;;;;0.90;0.70;;;;;;;14.12;100.00;99035.19;15287458;19;20010;-54
2022/07/01 22:18:26;;;;;;;4.38;0.95;;;;;;;14.10;100.00;99035.38;15281469;19;20506;-58
2022/07/01 22:23:34;;;;;;;1.65;0.90;;;;;;;14.09;100.00;99052.66;15275631;19;20007;-58
2022/07/01 22:28:42;;;;;;;1.73;0.95;;;;;;;14.08;100.00;99069.91;15279665;19;20352;-59
2022/07/01 22:33:49;;;;;;;1.83;0.90;;;;;;;14.08;100.00;99072.63;15285219;19;20017;-58
2022/07/01 22:38:54;;;;;;;2.05;0.77;;;;;;;14.08;100.00;99061.78;15279773;19;20038;-57
2022/07/01 22:44:04;;;;;;;2.08;0.80;;;;;;;14.10;100.00;99058.94;15283630;19;20014;-57
2022/07/01 22:49:17;;;;;;;2.45;0.70;;;;;;;14.12;100.00;99063.16;15279957;19;20488;-56
2022/07/01 22:54:33;;;;;;;1.98;0.80;;;;;;;14.13;100.00;99070.28;15277906;19;20043;-58
2022/07/01 22:59:41;;;;;;;2.10;0.82;;;;;;;14.13;100.00;99064.00;15276681;19;20021;-57
2022/07/01 23:04:49;;;;;;;2.30;0.77;;;;;;;14.11;100.00;99066.88;15280373;19;20037;-56
2022/07/01 23:10:01;;;;;;;1.27;0.80;;;;;;;14.10;100.00;99065.19;15280019;19;20475;-58
2022/07/01 23:20:28;;;;;;;2.60;0.90;;;;;;;14.06;100.00;99077.34;15279476;19;19915;-58
2022/07/01 23:25:35;;;;;;;1.90;0.90;;;;;;;14.03;100.00;99075.00;15279947;19;20022;-58
2022/07/01 23:30:45;;;;;;;0.80;0.80;;;;;;;14.01;100.00;99080.56;15267173;19;20015;-56
2022/07/01 23:35:53;;;;;;;1.92;0.90;;;;;;;13.99;100.00;99076.34;15279514;19;20014;-59
2022/07/01 23:46:22;;;;;;;1.15;0.90;;;;;;;13.97;100.00;99075.66;15278722;19;20018;-57
2022/07/01 23:51:29;;;;;;;2.85;0.90;;;;;;;13.95;100.00;99077.69;15276872;19;20711;-58
2022/07/01 23:56:36;;;;;;;1.17;0.85;;;;;;;13.98;100.00;99077.34;15277302;19;20022;-58
